createdAt,value
2018-04-14T00:02:25.207Z,5.60
2018-04-14T00:04:57.858Z,5.43
2018-04-14T00:07:30.491Z,5.37
2018-04-14T00:10:03.361Z,5.33
2018-04-14T00:12:36.748Z,5.10
2018-04-14T00:15:09.350Z,5.43
2018-04-14T00:17:41.988Z,5.63
2018-04-14T00:20:14.603Z,6.03
2018-04-14T00:22:47.257Z,5.30
2018-04-14T00:25:19.861Z,5.87
2018-04-14T00:27:52.489Z,6.23
2018-04-14T00:30:25.092Z,6.30
2018-04-14T00:32:57.742Z,7.07
2018-04-14T00:35:30.348Z,7.23
2018-04-14T00:38:02.980Z,7.60
2018-04-14T00:40:36.351Z,7.40
2018-04-14T00:43:08.980Z,8.50
2018-04-14T00:45:42.350Z,8.60
2018-04-14T00:48:14.994Z,8.40
2018-04-14T00:50:48.367Z,8.13
2018-04-14T00:53:32.832Z,8.53
2018-04-14T00:56:05.452Z,8.70
2018-04-14T00:58:38.856Z,8.50
2018-04-14T01:01:11.462Z,9.40
2018-04-14T01:03:44.873Z,9.33
2018-04-14T01:06:18.257Z,10.20
2018-04-14T01:08:50.898Z,8.77
2018-04-14T01:11:23.508Z,9.37
2018-04-14T01:20:11.004Z,8.67
2018-04-14T01:22:43.638Z,9.03
2018-04-14T01:25:16.266Z,9.70
2018-04-14T01:27:49.641Z,8.63
2018-04-14T01:30:22.268Z,8.77
2018-04-14T01:32:54.867Z,9.63
2018-04-14T01:35:27.500Z,8.90
2018-04-14T01:38:00.105Z,9.40
2018-04-14T01:40:32.739Z,9.20
2018-04-14T01:43:05.340Z,8.83
2018-04-14T01:45:37.964Z,9.10
2018-04-14T01:48:10.572Z,8.13
2018-04-14T01:50:43.200Z,8.43
2018-04-14T01:53:15.813Z,7.93
2018-04-14T01:55:48.436Z,9.20
2018-04-14T01:58:21.047Z,9.70
2018-04-14T02:00:53.676Z,9.57
2018-04-14T02:03:26.284Z,10.17
2018-04-14T02:05:58.916Z,9.60
2018-04-14T02:08:31.518Z,9.80
2018-04-14T02:11:04.948Z,10.17
2018-04-14T02:13:37.557Z,10.17
2018-04-14T02:16:10.973Z,8.93
2018-04-14T02:18:43.591Z,8.77
2018-04-14T02:21:16.230Z,9.97
2018-04-14T02:23:49.601Z,9.17
2018-04-14T02:26:22.248Z,9.60
2018-04-14T02:28:54.859Z,10.20
2018-04-14T02:31:27.517Z,9.73
2018-04-14T02:34:00.129Z,9.40
2018-04-14T02:36:32.789Z,10.40
2018-04-14T02:39:06.184Z,10.23
2018-04-14T02:41:38.816Z,9.80
2018-04-14T02:44:11.427Z,10.20
2018-04-14T02:46:44.052Z,9.60
2018-04-14T02:49:16.668Z,9.33
2018-04-14T02:51:49.313Z,10.23
2018-04-14T02:54:21.937Z,9.73
2018-04-14T02:56:55.360Z,10.57
2018-04-14T02:59:28.034Z,9.83
2018-04-14T03:02:00.661Z,9.60
2018-04-14T03:04:33.272Z,9.77
2018-04-14T03:07:05.904Z,9.37
2018-04-14T03:09:38.508Z,10.07
2018-04-14T03:12:12.854Z,9.70
2018-04-14T03:14:46.231Z,9.33
2018-04-14T03:17:18.886Z,9.97
2018-04-14T03:26:07.639Z,9.80
2018-04-14T03:28:40.255Z,9.60
2018-04-14T03:31:12.881Z,9.47
2018-04-14T03:33:46.285Z,9.53
2018-04-14T03:36:19.652Z,9.30
2018-04-14T03:38:52.272Z,9.93
2018-04-14T03:41:24.887Z,9.97
2018-04-14T03:43:57.534Z,9.83
2018-04-14T03:46:30.136Z,9.90
2018-04-14T03:49:02.767Z,10.27
2018-04-14T03:51:35.368Z,9.80
2018-04-14T03:54:08.024Z,10.03
2018-04-14T03:56:41.395Z,10.20
2018-04-14T03:59:14.057Z,10.47
2018-04-14T04:01:46.681Z,10.47
2018-04-14T04:04:19.313Z,10.17
2018-04-14T04:06:52.693Z,11.37
2018-04-14T04:09:25.339Z,11.10
2018-04-14T04:11:57.945Z,10.83
2018-04-14T04:14:30.592Z,10.17
2018-04-14T04:17:03.206Z,11.43
2018-04-14T04:19:47.723Z,11.20
2018-04-14T04:22:32.365Z,11.97
2018-04-14T04:25:16.937Z,13.43
2018-04-14T04:27:49.545Z,12.27
2018-04-14T04:30:22.182Z,12.50
2018-04-14T04:32:54.810Z,14.37
2018-04-14T04:35:27.450Z,14.43
2018-04-14T04:38:00.056Z,14.67
2018-04-14T04:40:32.685Z,15.07
2018-04-14T04:43:05.317Z,16.07
2018-04-14T04:45:37.948Z,16.60
2018-04-14T04:48:11.333Z,16.47
2018-04-14T04:50:43.995Z,16.53
2018-04-14T04:53:16.617Z,17.73
2018-04-14T04:55:49.276Z,18.67
2018-04-14T04:58:21.894Z,18.00
2018-04-14T05:00:54.548Z,18.10
2018-04-14T05:03:27.156Z,16.07
2018-04-14T05:05:59.805Z,19.00
2018-04-14T05:08:33.206Z,16.53
2018-04-14T05:11:05.947Z,13.83
2018-04-14T05:13:38.728Z,13.70
2018-04-14T05:16:11.608Z,13.53
2018-04-14T05:18:44.563Z,13.17
2018-04-14T05:21:18.082Z,12.07
2018-04-14T05:23:50.692Z,11.97
2018-04-14T05:26:24.104Z,10.47
2018-04-14T05:28:57.485Z,10.23
2018-04-14T05:31:43.868Z,9.33
2018-04-14T05:34:16.509Z,10.47
2018-04-14T05:36:49.128Z,9.90
2018-04-14T05:39:21.735Z,10.30
2018-04-14T05:41:54.359Z,10.67
2018-04-14T05:44:26.967Z,11.63
2018-04-14T05:46:59.595Z,10.87
2018-04-14T05:49:32.208Z,12.13
2018-04-14T05:52:04.843Z,12.47
2018-04-14T05:54:37.447Z,11.83
2018-04-14T05:57:11.016Z,12.53
2018-04-14T05:59:43.690Z,11.47
2018-04-14T06:02:16.329Z,12.20
2018-04-14T06:04:48.941Z,21.93
2018-04-14T06:07:22.331Z,15.73
2018-04-14T06:09:54.936Z,16.87
2018-04-14T06:12:41.135Z,14.03
2018-04-14T06:15:14.005Z,13.50
2018-04-14T06:17:47.508Z,15.97
2018-04-14T06:20:20.124Z,38.10
2018-04-14T06:22:52.760Z,30.20
2018-04-14T06:25:25.369Z,19.00
2018-04-14T06:27:57.996Z,19.03
2018-04-14T06:30:30.603Z,16.20
2018-04-14T06:33:03.264Z,15.30
2018-04-14T06:35:35.892Z,14.20
2018-04-14T06:38:08.525Z,15.10
2018-04-14T06:40:41.186Z,15.90
2018-04-14T06:43:14.604Z,15.60
2018-04-14T06:45:47.236Z,15.80
2018-04-14T06:48:19.869Z,13.73
2018-04-14T06:50:52.516Z,13.47
2018-04-14T06:53:43.136Z,14.97
2018-04-14T06:56:15.763Z,15.87
2018-04-14T06:58:48.396Z,15.07
2018-04-14T07:01:21.013Z,14.47
2018-04-14T07:03:53.673Z,15.90
2018-04-14T07:06:26.284Z,14.63
2018-04-14T07:08:58.941Z,14.87
2018-04-14T07:11:32.330Z,14.60
2018-04-14T07:14:05.029Z,14.53
2018-04-14T07:16:38.415Z,15.47
2018-04-14T07:19:11.071Z,15.83
2018-04-14T07:21:43.683Z,16.07
2018-04-14T07:24:16.335Z,15.20
2018-04-14T07:26:48.995Z,16.60
2018-04-14T07:29:21.620Z,16.63
2018-04-14T07:31:54.997Z,17.10
2018-04-14T07:34:27.658Z,16.97
2018-04-14T07:37:00.275Z,15.93
2018-04-14T07:39:32.923Z,15.67
2018-04-14T07:42:05.532Z,16.63
2018-04-14T07:44:38.190Z,17.10
2018-04-14T07:47:10.805Z,16.10
2018-04-14T07:49:43.465Z,17.27
2018-04-14T07:52:16.103Z,16.27
2018-04-14T07:54:48.741Z,16.97
2018-04-14T07:57:22.123Z,19.00
2018-04-14T07:59:54.816Z,20.70
2018-04-14T08:02:27.481Z,20.93
2018-04-14T08:05:00.079Z,22.73
2018-04-14T08:07:32.696Z,21.50
2018-04-14T08:10:05.509Z,23.60
2018-04-14T08:12:38.887Z,23.17
2018-04-14T08:15:11.532Z,23.23
2018-04-14T08:17:44.150Z,22.83
2018-04-14T08:20:19.703Z,22.73
2018-04-14T08:22:52.542Z,23.87
2018-04-14T08:25:25.200Z,21.83
2018-04-14T08:27:59.553Z,21.37
2018-04-14T08:30:32.215Z,23.80
2018-04-14T08:33:04.841Z,43.67
2018-04-14T08:35:37.488Z,37.17
2018-04-14T08:41:08.781Z,40.27
2018-04-14T08:43:41.395Z,42.80
2018-04-14T08:46:14.041Z,26.83
2018-04-14T08:48:47.429Z,19.77
2018-04-14T08:51:20.061Z,20.03
2018-04-14T08:53:52.692Z,20.73
2018-04-14T08:56:25.362Z,21.47
2018-04-14T08:58:57.976Z,23.20
2018-04-14T09:01:30.619Z,19.37
2018-04-14T09:04:03.996Z,17.57
2018-04-14T09:06:36.635Z,18.53
2018-04-14T09:09:09.292Z,17.77
2018-04-14T09:11:41.934Z,12.93
2018-04-14T09:14:14.735Z,14.30
2018-04-14T09:16:47.406Z,24.10
2018-04-14T09:19:20.029Z,14.27
2018-04-14T09:21:52.685Z,13.40
2018-04-14T09:24:25.292Z,13.80
2018-04-14T09:26:57.948Z,14.17
2018-04-14T09:29:30.564Z,13.30
2018-04-14T09:32:03.226Z,14.57
2018-04-14T09:34:35.845Z,15.13
2018-04-14T09:37:09.256Z,14.87
2018-04-14T09:39:41.872Z,15.87
2018-04-14T09:42:14.557Z,16.87
2018-04-14T09:44:47.196Z,18.63
2018-04-14T09:47:19.840Z,19.60
2018-04-14T09:49:54.659Z,20.10
2018-04-14T09:52:27.318Z,21.37
2018-04-14T09:55:00.244Z,23.20
2018-04-14T09:57:32.973Z,24.47
2018-04-14T10:00:05.596Z,30.20
2018-04-14T10:02:44.021Z,31.13
2018-04-14T10:05:16.644Z,31.50
2018-04-14T10:07:50.061Z,31.80
2018-04-14T10:10:23.490Z,33.07
2018-04-14T10:12:57.005Z,33.03
2018-04-14T10:15:30.545Z,34.40
2018-04-14T10:18:03.221Z,34.57
2018-04-14T10:20:36.604Z,33.40
2018-04-14T10:23:09.993Z,36.37
2018-04-14T10:25:42.689Z,38.97
2018-04-14T10:28:15.326Z,38.27
2018-04-14T10:30:47.966Z,36.67
2018-04-14T10:33:20.611Z,43.47
2018-04-14T10:35:53.979Z,44.00
2018-04-14T10:38:26.624Z,45.80
2018-04-14T10:40:59.233Z,42.90
2018-04-14T10:43:31.886Z,50.77
2018-04-14T10:46:04.487Z,41.43
2018-04-14T10:48:37.119Z,41.83
2018-04-14T10:51:09.729Z,40.37
2018-04-14T10:53:42.371Z,39.73
2018-04-14T10:56:14.978Z,39.00
2018-04-14T10:58:47.600Z,36.10
2018-04-14T11:01:20.199Z,35.03
2018-04-14T11:03:52.892Z,35.23
2018-04-14T11:06:25.476Z,34.07
2018-04-14T11:08:58.103Z,33.70
2018-04-14T11:11:30.714Z,32.63
2018-04-14T11:14:03.340Z,30.50
2018-04-14T11:16:35.944Z,30.20
2018-04-14T11:19:08.567Z,30.00
2018-04-14T11:21:41.181Z,29.87
2018-04-14T11:24:13.804Z,32.00
2018-04-14T11:26:46.419Z,30.73
2018-04-14T11:29:19.846Z,31.43
2018-04-14T11:31:52.456Z,32.10
2018-04-14T11:34:25.110Z,29.97
2018-04-14T11:36:58.488Z,30.87
2018-04-14T11:39:31.119Z,32.13
2018-04-14T11:42:04.491Z,31.37
2018-04-14T11:44:37.132Z,32.73
2018-04-14T11:47:09.735Z,32.83
2018-04-14T11:49:42.380Z,34.77
2018-04-14T11:52:14.980Z,34.87
2018-04-14T11:54:47.604Z,33.90
2018-04-14T11:57:20.233Z,32.80
2018-04-14T11:59:52.860Z,34.70
2018-04-14T12:02:26.255Z,34.27
2018-04-14T12:04:58.904Z,35.73
2018-04-14T12:07:31.509Z,33.80
2018-04-14T12:10:04.145Z,35.40
2018-04-14T12:12:37.511Z,39.27
2018-04-14T12:15:10.164Z,37.27
2018-04-14T12:17:42.775Z,51.87
2018-04-14T12:20:15.416Z,36.90
2018-04-14T12:22:48.024Z,36.90
2018-04-14T12:25:21.433Z,46.77
2018-04-14T12:27:54.804Z,48.87
2018-04-14T12:30:27.428Z,36.30
2018-04-14T12:33:00.825Z,43.03
2018-04-14T12:35:33.551Z,36.10
2018-04-14T12:38:06.926Z,37.80
2018-04-14T12:40:39.576Z,38.53
2018-04-14T12:43:12.178Z,40.37
2018-04-14T12:45:44.806Z,40.30
2018-04-14T12:48:17.413Z,36.10
2018-04-14T12:50:50.812Z,38.90
2018-04-14T12:53:23.424Z,36.37
2018-04-14T12:55:56.836Z,37.30
2018-04-14T12:58:29.443Z,36.20
2018-04-14T13:01:02.088Z,37.30
2018-04-14T13:03:34.693Z,39.00
2018-04-14T13:06:08.085Z,37.03
2018-04-14T13:08:40.688Z,37.70
2018-04-14T13:11:13.332Z,39.23
2018-04-14T13:13:45.936Z,39.47
2018-04-14T13:16:18.588Z,38.40
2018-04-14T13:18:51.960Z,36.50
2018-04-14T13:21:24.615Z,39.60
2018-04-14T13:23:57.226Z,38.63
2018-04-14T13:26:29.869Z,36.57
2018-04-14T13:29:03.245Z,38.33
2018-04-14T13:31:35.893Z,37.83
2018-04-14T13:34:08.496Z,36.50
2018-04-14T13:36:41.145Z,34.50
2018-04-14T13:39:14.523Z,35.43
2018-04-14T13:41:47.177Z,34.67
2018-04-14T13:44:19.778Z,36.33
2018-04-14T13:46:52.412Z,36.47
2018-04-14T13:49:25.021Z,35.87
2018-04-14T13:51:58.965Z,36.80
2018-04-14T13:54:31.575Z,37.87
2018-04-14T13:57:04.224Z,37.97
2018-04-14T13:59:37.601Z,38.07
2018-04-14T14:02:17.739Z,37.57
2018-04-14T14:04:50.349Z,36.63
2018-04-14T14:07:22.979Z,37.83
2018-04-14T14:09:56.403Z,37.70
2018-04-14T14:12:31.829Z,39.73
2018-04-14T14:15:16.056Z,41.10
2018-04-14T14:17:49.194Z,44.57
2018-04-14T14:20:21.963Z,36.00
2018-04-14T14:22:55.014Z,36.57
2018-04-14T14:25:30.841Z,35.50
2018-04-14T14:28:03.536Z,38.93
2018-04-14T14:30:36.213Z,38.53
2018-04-14T14:33:08.844Z,34.13
2018-04-14T14:35:41.453Z,36.13
2018-04-14T14:38:14.848Z,32.53
2018-04-14T14:40:47.466Z,36.23
2018-04-14T14:43:20.164Z,36.67
2018-04-14T14:45:52.776Z,31.87
2018-04-14T14:48:25.415Z,53.70
2018-04-14T14:50:58.800Z,31.50
2018-04-14T14:53:31.432Z,33.10
2018-04-14T14:56:04.803Z,37.37
2018-04-14T14:58:37.437Z,31.67
2018-04-14T15:01:10.812Z,32.43
2018-04-14T15:03:43.436Z,33.50
2018-04-14T15:06:16.821Z,34.20
2018-04-14T15:08:49.457Z,37.50
2018-04-14T15:11:27.234Z,32.27
2018-04-14T15:13:59.869Z,32.97
2018-04-14T15:16:32.480Z,29.90
2018-04-14T15:19:05.159Z,30.63
2018-04-14T15:21:37.764Z,34.90
2018-04-14T15:24:10.408Z,31.47
2018-04-14T15:26:43.793Z,37.87
2018-04-14T15:29:16.451Z,32.13
2018-04-14T15:31:49.061Z,27.07
2018-04-14T15:34:21.707Z,28.93
2018-04-14T15:36:54.312Z,28.73
2018-04-14T15:39:26.943Z,28.33
2018-04-14T15:41:59.554Z,33.70
2018-04-14T15:44:32.203Z,27.50
2018-04-14T15:47:04.811Z,30.37
2018-04-14T15:49:37.436Z,31.57
2018-04-14T15:52:10.803Z,27.27
2018-04-14T15:54:43.443Z,28.17
2018-04-14T15:57:16.824Z,25.33
2018-04-14T15:59:50.555Z,23.83
2018-04-14T16:02:23.941Z,22.67
2018-04-14T16:04:58.593Z,21.97
2018-04-14T16:07:31.201Z,24.13
2018-04-14T16:10:04.588Z,24.70
2018-04-14T16:12:37.195Z,28.30
2018-04-14T16:15:10.590Z,20.63
2018-04-14T16:17:43.200Z,14.03
2018-04-14T16:20:15.860Z,10.20
2018-04-14T16:22:48.464Z,8.60
2018-04-14T16:25:21.104Z,8.77
2018-04-14T16:27:53.708Z,8.97
2018-04-14T16:30:26.351Z,13.33
2018-04-14T16:32:58.949Z,7.93
2018-04-14T16:35:31.573Z,8.17
2018-04-14T16:38:04.176Z,9.17
2018-04-14T16:40:36.816Z,9.80
2018-04-14T16:43:09.411Z,9.53
2018-04-14T16:45:42.807Z,9.97
2018-04-14T16:48:15.416Z,5.07
2018-04-14T16:50:48.064Z,5.40
2018-04-14T16:53:21.220Z,4.40
2018-04-14T16:55:54.640Z,4.90
2018-04-14T16:58:28.016Z,5.50
2018-04-14T17:01:00.700Z,4.47
2018-04-14T17:03:33.316Z,4.30
2018-04-14T17:06:05.932Z,4.30
2018-04-14T17:08:38.532Z,4.87
2018-04-14T17:11:11.143Z,4.30
2018-04-14T17:13:43.747Z,4.20
2018-04-14T17:16:16.400Z,3.97
2018-04-14T17:18:49.032Z,3.70
2018-04-14T17:21:21.716Z,3.90
2018-04-14T17:23:54.316Z,4.37
2018-04-14T17:26:26.951Z,4.03
2018-04-14T17:29:00.312Z,4.03
2018-04-14T17:31:32.940Z,4.40
2018-04-14T17:34:05.549Z,4.70
2018-04-14T17:36:38.957Z,4.30
2018-04-14T17:39:11.564Z,4.30
2018-04-14T17:41:44.200Z,4.23
2018-04-14T17:44:16.834Z,4.00
2018-04-14T17:46:49.499Z,3.50
2018-04-14T17:49:22.101Z,3.10
2018-04-14T17:51:54.721Z,3.90
2018-04-14T17:54:27.325Z,3.53
2018-04-14T17:56:59.971Z,3.53
2018-04-14T17:59:32.581Z,4.13
2018-04-14T18:02:05.969Z,3.53
2018-04-14T18:04:38.585Z,4.03
2018-04-14T18:07:11.979Z,3.47
2018-04-14T18:09:44.592Z,3.60
2018-04-14T18:12:17.248Z,3.57
2018-04-14T18:14:49.857Z,3.60
2018-04-14T18:17:23.284Z,3.37
2018-04-14T18:19:56.655Z,8.00
2018-04-14T18:22:29.284Z,11.10
2018-04-14T18:25:03.436Z,8.93
2018-04-14T18:27:46.578Z,6.73
2018-04-14T18:30:19.176Z,4.47
2018-04-14T18:38:47.814Z,3.67
2018-04-14T18:41:20.420Z,3.90
2018-04-14T18:43:53.044Z,3.27
2018-04-14T18:46:25.651Z,3.70
2018-04-14T18:48:58.267Z,3.87
2018-04-14T18:51:31.628Z,3.53
2018-04-14T18:54:08.843Z,4.30
2018-04-14T18:56:41.447Z,4.30
2018-04-14T18:59:14.090Z,3.77
2018-04-14T19:01:46.717Z,3.27
2018-04-14T19:04:19.335Z,3.50
2018-04-14T19:06:52.696Z,3.47
2018-04-14T19:09:25.357Z,3.10
2018-04-14T19:11:58.712Z,9.57
2018-04-14T19:14:34.852Z,3.10
2018-04-14T19:17:07.475Z,3.30
2018-04-14T19:19:40.092Z,3.23
2018-04-14T19:22:12.695Z,2.90
2018-04-14T19:24:46.100Z,3.33
2018-04-14T19:27:18.836Z,3.27
2018-04-14T19:29:51.582Z,3.73
2018-04-14T19:32:24.397Z,4.00
2018-04-14T19:34:57.197Z,3.37
2018-04-14T19:37:30.764Z,3.50
2018-04-14T19:40:03.400Z,3.97
2018-04-14T19:42:36.764Z,3.93
2018-04-14T19:45:16.280Z,4.00
2018-04-14T19:47:48.871Z,3.73
2018-04-14T19:50:21.508Z,3.57
2018-04-14T19:52:54.113Z,3.80
2018-04-14T19:55:26.751Z,4.17
2018-04-14T19:57:59.350Z,3.87
2018-04-14T20:00:31.984Z,4.00
2018-04-14T20:03:04.816Z,3.60
2018-04-14T20:05:37.477Z,3.67
2018-04-14T20:08:10.080Z,3.50
2018-04-14T20:10:42.705Z,3.40
2018-04-14T20:13:15.320Z,3.80
2018-04-14T20:15:47.956Z,4.67
2018-04-14T20:18:20.551Z,4.13
2018-04-14T20:20:58.522Z,3.70
2018-04-14T20:23:31.125Z,4.17
2018-04-14T20:26:03.784Z,4.00
2018-04-14T20:28:36.393Z,4.20
2018-04-14T20:31:09.045Z,4.40
2018-04-14T20:33:42.411Z,4.17
2018-04-14T20:36:15.041Z,4.57
2018-04-14T20:38:48.423Z,5.50
2018-04-14T20:41:21.064Z,5.40
2018-04-14T20:43:53.668Z,5.40
2018-04-14T20:46:26.321Z,6.13
2018-04-14T20:48:59.692Z,6.10
2018-04-14T20:51:32.331Z,5.73
2018-04-14T20:54:05.714Z,6.00
2018-04-14T20:56:38.337Z,5.20
2018-04-14T20:59:11.713Z,5.03
2018-04-14T21:01:44.355Z,5.83
2018-04-14T21:04:17.728Z,5.73
2018-04-14T21:06:50.372Z,5.30
2018-04-14T21:09:22.972Z,4.73
2018-04-14T21:11:55.615Z,5.50
2018-04-14T21:14:28.223Z,5.70
2018-04-14T21:17:01.739Z,4.83
2018-04-14T21:19:35.116Z,5.30
2018-04-14T21:22:07.741Z,4.83
2018-04-14T21:24:41.115Z,4.67
2018-04-14T21:27:13.742Z,5.13
2018-04-14T21:29:47.346Z,5.30
2018-04-14T21:32:20.025Z,4.97
2018-04-14T21:34:52.624Z,4.93
2018-04-14T21:37:25.270Z,4.77
2018-04-14T21:39:57.868Z,4.60
2018-04-14T21:42:30.488Z,5.00
2018-04-14T21:45:03.084Z,4.47
2018-04-14T21:47:35.728Z,5.10
2018-04-14T21:50:08.327Z,4.63
2018-04-14T21:52:40.951Z,4.63
2018-04-14T21:55:13.552Z,4.50
2018-04-14T21:57:46.197Z,5.17
2018-04-14T22:00:18.804Z,5.13
2018-04-14T22:02:51.424Z,4.90
2018-04-14T22:05:24.060Z,4.47
2018-04-14T22:07:56.701Z,4.10
2018-04-14T22:10:29.304Z,4.20
2018-04-14T22:13:01.931Z,3.43
2018-04-14T22:15:35.300Z,4.30
2018-04-14T22:18:07.932Z,4.03
2018-04-14T22:20:41.292Z,3.33
2018-04-14T22:23:13.912Z,3.20
2018-04-14T22:25:46.534Z,3.33
2018-04-14T22:28:19.182Z,3.33
2018-04-14T22:30:51.802Z,3.20
2018-04-14T22:33:25.183Z,3.93
2018-04-14T22:35:57.792Z,3.60
2018-04-14T22:38:30.416Z,3.17
2018-04-14T22:41:03.016Z,3.43
2018-04-14T22:43:35.653Z,3.93
2018-04-14T22:46:08.255Z,3.47
2018-04-14T22:48:40.873Z,3.60
2018-04-14T22:51:14.236Z,3.90
2018-04-14T22:53:46.876Z,4.10
2018-04-14T22:56:20.237Z,3.93
2018-04-14T22:58:52.881Z,3.40
2018-04-14T23:01:25.476Z,3.67
2018-04-14T23:03:58.117Z,3.10
2018-04-14T23:06:30.716Z,3.00
2018-04-14T23:09:03.352Z,3.17
2018-04-14T23:11:35.948Z,3.10
2018-04-14T23:14:08.568Z,2.90
2018-04-14T23:16:41.173Z,3.33
2018-04-14T23:19:13.834Z,3.40
2018-04-14T23:21:46.453Z,3.57
2018-04-14T23:24:19.080Z,3.43
2018-04-14T23:26:52.447Z,3.87
2018-04-14T23:29:25.068Z,4.50
2018-04-14T23:31:57.684Z,4.20
2018-04-14T23:34:30.330Z,3.30
2018-04-14T23:37:02.936Z,3.77
2018-04-14T23:39:35.556Z,3.60
2018-04-14T23:42:08.911Z,4.93
2018-04-14T23:44:41.528Z,6.10
2018-04-14T23:47:14.144Z,5.97
2018-04-14T23:49:47.535Z,6.97
2018-04-14T23:52:20.904Z,5.93
2018-04-14T23:54:53.529Z,7.50
2018-04-14T23:57:26.128Z,7.23
2018-04-14T23:59:58.769Z,7.47
